Time,TemperatureF,DewpointF,PressureIn,WindDirection,WindDirectionDegrees,WindSpeedMPH,WindSpeedGustMPH,Humidity,HourlyPrecipIn,Conditions,Clouds,dailyrainin,SoftwareType,DateUTC
2013-05-31 00:00:00,58.6,53.1,29.64,SSW,196,9.0,35.0,82,0.00,,,0.63,Wunderground v.1.15,2013-05-31 05:00:00,
2013-05-31 00:05:00,58.4,53.3,29.65,West,264,8.0,35.0,83,0.00,,,0.63,Wunderground v.1.15,2013-05-31 05:05:00,
2013-05-31 00:10:00,58.1,53.3,29.65,WNW,286,7.0,7.0,84,0.00,,,0.63,Wunderground v.1.15,2013-05-31 05:10:00,
2013-05-31 00:15:00,58.2,53.1,29.66,WSW,252,7.0,35.0,83,0.00,,,0.63,Wunderground v.1.15,2013-05-31 05:15:00,
2013-05-31 00:25:00,58.2,53.1,29.66,WSW,258,7.0,35.0,83,0.00,,,0.63,Wunderground v.1.15,2013-05-31 05:25:00,
2013-05-31 00:30:00,58.0,52.9,29.67,WSW,258,6.0,6.0,83,0.00,,,0.63,Wunderground v.1.15,2013-05-31 05:30:00,
2013-05-31 00:35:00,57.9,53.1,29.67,WSW,254,5.0,35.0,84,0.00,,,0.63,Wunderground v.1.15,2013-05-31 05:35:00,
2013-05-31 00:40:00,57.9,53.1,29.67,SSW,200,6.0,35.0,84,0.00,,,0.63,Wunderground v.1.15,2013-05-31 05:40:00,
2013-05-31 00:50:00,57.7,52.9,29.66,South,178,9.0,9.0,84,0.00,,,0.63,Wunderground v.1.15,2013-05-31 05:50:00,
2013-05-31 00:55:00,57.5,53.0,29.66,South,181,8.0,35.0,85,0.00,,,0.63,Wunderground v.1.15,2013-05-31 05:55:00,
2013-05-31 01:00:00,57.2,52.7,29.66,South,181,8.0,8.0,85,0.00,,,0.00,Wunderground v.1.15,2013-05-31 06:00:00,
2013-05-31 01:10:00,57.1,52.6,29.67,West,274,6.0,35.0,85,0.00,,,0.00,Wunderground v.1.15,2013-05-31 06:10:00,
2013-05-31 01:15:00,56.8,52.3,29.67,WNW,296,7.0,35.0,85,0.00,,,0.00,Wunderground v.1.15,2013-05-31 06:15:00,
2013-05-31 01:20:00,56.7,52.6,29.67,WNW,295,7.0,7.0,86,0.00,,,0.00,Wunderground v.1.15,2013-05-31 06:20:00,
2013-05-31 01:25:00,56.6,52.5,29.67,WNW,295,6.0,35.0,86,0.00,,,0.00,Wunderground v.1.15,2013-05-31 06:25:00,
2013-05-31 01:30:00,56.5,52.4,29.67,WNW,295,4.0,4.0,86,0.00,,,0.00,Wunderground v.1.15,2013-05-31 06:30:00,
2013-05-31 01:40:00,56.2,52.1,29.65,SSE,164,5.0,35.0,86,0.00,,,0.00,Wunderground v.1.15,2013-05-31 06:40:00,
2013-05-31 01:45:00,56.2,52.4,29.65,SSE,164,8.0,35.0,87,0.00,,,0.00,Wunderground v.1.15,2013-05-31 06:45:00,
2013-05-31 01:50:00,56.3,52.2,29.65,SSE,164,6.0,6.0,86,0.00,,,0.00,Wunderground v.1.15,2013-05-31 06:50:00,
2013-05-31 01:55:00,56.2,52.1,29.66,SSE,164,4.0,35.0,86,0.00,,,0.00,Wunderground v.1.15,2013-05-31 06:55:00,
2013-05-31 02:05:00,55.6,51.8,29.66,NW,309,6.0,35.0,87,0.00,,,0.00,Wunderground v.1.15,2013-05-31 07:05:00,
2013-05-31 02:10:00,56.1,52.0,29.65,NW,309,4.0,35.0,86,0.00,,,0.00,Wunderground v.1.15,2013-05-31 07:10:00,
2013-05-31 02:15:00,56.3,51.8,29.66,NW,309,3.0,35.0,85,0.00,,,0.00,Wunderground v.1.15,2013-05-31 07:15:00,
2013-05-31 02:25:00,56.7,51.3,29.66,WNW,299,5.0,35.0,82,0.00,,,0.00,Wunderground v.1.15,2013-05-31 07:25:00,
2013-05-31 02:30:00,56.4,51.0,29.66,WNW,295,6.0,35.0,82,0.00,,,0.00,Wunderground v.1.15,2013-05-31 07:30:00,
2013-05-31 02:35:00,56.4,50.6,29.66,West,281,6.0,35.0,81,0.00,,,0.00,Wunderground v.1.15,2013-05-31 07:35:00,
2013-05-31 02:40:00,56.5,50.4,29.66,West,280,6.0,35.0,80,0.00,,,0.00,Wunderground v.1.15,2013-05-31 07:40:00,
2013-05-31 02:45:00,56.5,50.4,29.66,West,273,7.0,35.0,80,0.00,,,0.00,Wunderground v.1.15,2013-05-31 07:45:00,
2013-05-31 02:55:00,57.4,50.2,29.66,West,275,9.0,35.0,77,0.00,,,0.00,Wunderground v.1.15,2013-05-31 07:55:00,
2013-05-31 03:00:00,57.1,50.0,29.66,West,267,8.0,35.0,77,0.00,,,0.00,Wunderground v.1.15,2013-05-31 08:00:00,
2013-05-31 03:05:00,57.0,49.5,29.66,West,265,8.0,35.0,76,0.00,,,0.00,Wunderground v.1.15,2013-05-31 08:05:00,
2013-05-31 03:10:00,58.0,49.8,29.66,West,265,8.0,35.0,74,0.00,,,0.00,Wunderground v.1.15,2013-05-31 08:10:00,
2013-05-31 03:20:00,59.2,49.4,29.66,West,275,10.0,35.0,70,0.00,,,0.00,Wunderground v.1.15,2013-05-31 08:20:00,
2013-05-31 03:25:00,59.2,49.0,29.66,West,273,10.0,35.0,69,0.00,,,0.00,Wunderground v.1.15,2013-05-31 08:25:00,
2013-05-31 03:35:00,58.5,49.1,29.67,WNW,282,9.0,35.0,71,0.00,,,0.00,Wunderground v.1.15,2013-05-31 08:35:00,
2013-05-31 03:40:00,58.7,48.9,29.66,West,281,9.0,35.0,70,0.00,,,0.00,Wunderground v.1.15,2013-05-31 08:40:00,
2013-05-31 03:45:00,58.8,49.0,29.66,West,277,9.0,35.0,70,0.00,,,0.00,Wunderground v.1.15,2013-05-31 08:45:00,
2013-05-31 03:50:00,59.0,48.8,29.66,West,275,9.0,35.0,69,0.00,,,0.00,Wunderground v.1.15,2013-05-31 08:50:00,
2013-05-31 03:55:00,59.1,48.9,29.66,West,272,11.0,35.0,69,0.00,,,0.00,Wunderground v.1.15,2013-05-31 08:55:00,
2013-05-31 04:05:00,58.6,48.8,29.66,West,271,11.0,35.0,70,0.00,,,0.00,Wunderground v.1.15,2013-05-31 09:05:00,
2013-05-31 04:10:00,58.7,49.3,29.66,West,273,11.0,35.0,71,0.00,,,0.00,Wunderground v.1.15,2013-05-31 09:10:00,
2013-05-31 04:15:00,58.9,49.5,29.66,West,274,12.0,35.0,71,0.00,,,0.00,Wunderground v.1.15,2013-05-31 09:15:00,
2013-05-31 04:20:00,58.7,49.3,29.67,West,270,12.0,35.0,71,0.00,,,0.00,Wunderground v.1.15,2013-05-31 09:20:00,
2013-05-31 04:30:00,58.0,49.8,29.67,West,270,11.0,11.0,74,0.00,,,0.00,Wunderground v.1.15,2013-05-31 09:30:00,
2013-05-31 04:35:00,57.8,49.6,29.67,West,272,10.0,35.0,74,0.00,,,0.00,Wunderground v.1.15,2013-05-31 09:35:00,
2013-05-31 04:40:00,57.6,49.7,29.67,West,279,10.0,35.0,75,0.00,,,0.00,Wunderground v.1.15,2013-05-31 09:40:00,
2013-05-31 04:50:00,58.1,49.9,29.66,WNW,286,10.0,35.0,74,0.00,,,0.00,Wunderground v.1.15,2013-05-31 09:50:00,
2013-05-31 04:55:00,58.1,49.9,29.66,WNW,284,10.0,35.0,74,0.00,,,0.00,Wunderground v.1.15,2013-05-31 09:55:00,
2013-05-31 05:00:00,58.3,49.7,29.66,West,279,10.0,35.0,73,0.00,,,0.00,Wunderground v.1.15,2013-05-31 10:00:00,
2013-05-31 05:05:00,58.5,49.5,29.66,WNW,286,11.0,35.0,72,0.00,,,0.00,Wunderground v.1.15,2013-05-31 10:05:00,
2013-05-31 05:10:00,58.2,49.2,29.66,WNW,289,11.0,35.0,72,0.00,,,0.00,Wunderground v.1.15,2013-05-31 10:10:00,
2013-05-31 05:20:00,58.6,48.8,29.66,WNW,293,13.0,35.0,70,0.00,,,0.00,Wunderground v.1.15,2013-05-31 10:20:00,
2013-05-31 05:25:00,58.6,48.8,29.66,WNW,284,14.0,35.0,70,0.00,,,0.00,Wunderground v.1.15,2013-05-31 10:25:00,
2013-05-31 05:30:00,58.5,48.4,29.66,West,275,13.0,35.0,69,0.00,,,0.00,Wunderground v.1.15,2013-05-31 10:30:00,
2013-05-31 05:35:00,58.3,48.2,29.66,WNW,284,13.0,35.0,69,0.00,,,0.00,Wunderground v.1.15,2013-05-31 10:35:00,
2013-05-31 05:45:00,57.9,48.2,29.66,WNW,294,12.0,35.0,70,0.00,,,0.00,Wunderground v.1.15,2013-05-31 10:45:00,
2013-05-31 05:50:00,57.8,48.1,29.66,WNW,302,13.0,35.0,70,0.00,,,0.00,Wunderground v.1.15,2013-05-31 10:50:00,
2013-05-31 05:55:00,57.7,48.0,29.66,WNW,290,14.0,35.0,70,0.00,,,0.00,Wunderground v.1.15,2013-05-31 10:55:00,
2013-05-31 06:05:00,57.5,47.8,29.65,WNW,288,12.0,35.0,70,0.00,,,0.00,Wunderground v.1.15,2013-05-31 11:05:00,
2013-05-31 06:10:00,57.3,47.6,29.65,WNW,292,11.0,11.0,70,0.00,,,0.00,Wunderground v.1.15,2013-05-31 11:10:00,
2013-05-31 06:15:00,57.1,47.4,29.65,NW,310,10.0,35.0,70,0.00,,,0.00,Wunderground v.1.15,2013-05-31 11:15:00,
2013-05-31 06:20:00,57.0,47.3,29.65,WNW,295,11.0,35.0,70,0.00,,,0.00,Wunderground v.1.15,2013-05-31 11:20:00,
2013-05-31 06:30:00,56.7,47.8,29.65,WNW,288,11.0,35.0,72,0.00,,,0.00,Wunderground v.1.15,2013-05-31 11:30:00,
2013-05-31 06:35:00,56.5,47.6,29.65,West,281,11.0,35.0,72,0.00,,,0.00,Wunderground v.1.15,2013-05-31 11:35:00,
2013-05-31 06:40:00,56.4,47.1,29.65,WNW,294,11.0,35.0,71,0.00,,,0.00,Wunderground v.1.15,2013-05-31 11:40:00,
2013-05-31 06:45:00,56.4,47.5,29.65,WNW,284,11.0,35.0,72,0.00,,,0.00,Wunderground v.1.15,2013-05-31 11:45:00,
2013-05-31 06:55:00,56.3,47.4,29.66,West,280,10.0,35.0,72,0.00,,,0.00,Wunderground v.1.15,2013-05-31 11:55:00,
2013-05-31 07:00:00,56.0,47.8,29.66,West,279,9.0,9.0,74,0.00,,,0.00,Wunderground v.1.15,2013-05-31 12:00:00,
2013-05-31 07:05:00,56.0,47.8,29.66,West,274,8.0,10.0,74,0.00,,,0.00,Wunderground v.1.15,2013-05-31 12:05:00,
2013-05-31 07:15:00,56.6,48.0,29.66,West,273,9.0,11.0,73,0.00,,,0.00,Wunderground v.1.15,2013-05-31 12:15:00,
2013-05-31 07:20:00,57.0,48.1,29.66,West,281,9.0,35.0,72,0.00,,,0.00,Wunderground v.1.15,2013-05-31 12:20:00,
2013-05-31 07:25:00,57.4,48.1,29.66,WNW,283,10.0,35.0,71,0.00,,,0.00,Wunderground v.1.15,2013-05-31 12:25:00,
2013-05-31 07:30:00,57.7,48.4,29.66,WNW,283,10.0,35.0,71,0.00,,,0.00,Wunderground v.1.15,2013-05-31 12:30:00,
2013-05-31 07:40:00,58.2,47.7,29.66,WNW,291,10.0,10.0,68,0.00,,,0.00,Wunderground v.1.15,2013-05-31 12:40:00,
2013-05-31 07:45:00,58.4,48.3,29.66,NW,306,11.0,11.0,69,0.00,,,0.00,Wunderground v.1.15,2013-05-31 12:45:00,
2013-05-31 07:50:00,58.7,48.6,29.66,WNW,290,11.0,35.0,69,0.00,,,0.00,Wunderground v.1.15,2013-05-31 12:50:00,
2013-05-31 07:55:00,59.0,48.8,29.66,WNW,294,11.0,35.0,69,0.00,,,0.00,Wunderground v.1.15,2013-05-31 12:55:00,
2013-05-31 08:00:00,59.4,48.4,29.66,WNW,292,11.0,11.0,67,0.00,,,0.00,Wunderground v.1.15,2013-05-31 13:00:00,
2013-05-31 08:10:00,60.0,48.6,29.67,WNW,290,12.0,35.0,66,0.00,,,0.00,Wunderground v.1.15,2013-05-31 13:10:00,
2013-05-31 08:15:00,60.3,48.9,29.67,WNW,293,12.0,35.0,66,0.00,,,0.00,Wunderground v.1.15,2013-05-31 13:15:00,
2013-05-31 08:20:00,60.7,49.3,29.67,WNW,290,12.0,12.0,66,0.00,,,0.00,Wunderground v.1.15,2013-05-31 13:20:00,
2013-05-31 08:30:00,61.3,50.6,29.67,WNW,288,11.0,35.0,68,0.00,,,0.00,Wunderground v.1.15,2013-05-31 13:30:00,
2013-05-31 08:35:00,61.6,50.1,29.68,WNW,284,11.0,35.0,66,0.00,,,0.00,Wunderground v.1.15,2013-05-31 13:35:00,
2013-05-31 08:40:00,62.0,49.7,29.68,WNW,286,12.0,12.0,64,0.00,,,0.00,Wunderground v.1.15,2013-05-31 13:40:00,
2013-05-31 08:45:00,62.2,49.4,29.68,West,279,14.0,14.0,63,0.00,,,0.00,Wunderground v.1.15,2013-05-31 13:45:00,
2013-05-31 08:55:00,62.8,50.0,29.68,West,271,14.0,35.0,63,0.00,,,0.00,Wunderground v.1.15,2013-05-31 13:55:00,
2013-05-31 09:00:00,63.2,49.5,29.69,West,272,13.0,13.0,61,0.00,,,0.00,Wunderground v.1.15,2013-05-31 14:00:00,
2013-05-31 09:05:00,63.4,49.7,29.69,WNW,296,14.0,19.0,61,0.00,,,0.00,Wunderground v.1.15,2013-05-31 14:05:00,
2013-05-31 09:10:00,63.6,49.5,29.68,WNW,284,15.0,15.0,60,0.00,,,0.00,Wunderground v.1.15,2013-05-31 14:10:00,
2013-05-31 09:20:00,64.2,49.6,29.69,NW,312,15.0,35.0,59,0.00,,,0.00,Wunderground v.1.15,2013-05-31 14:20:00,
2013-05-31 09:25:00,64.4,49.3,29.69,West,277,15.0,35.0,58,0.00,,,0.00,Wunderground v.1.15,2013-05-31 14:25:00,
2013-05-31 09:30:00,64.9,51.1,29.69,West,268,14.0,14.0,61,0.00,,,0.00,Wunderground v.1.15,2013-05-31 14:30:00,
2013-05-31 09:35:00,64.9,50.2,29.69,WNW,286,14.0,35.0,59,0.00,,,0.00,Wunderground v.1.15,2013-05-31 14:35:00,
2013-05-31 09:45:00,65.4,50.7,29.69,West,277,14.0,35.0,59,0.00,,,0.00,Wunderground v.1.15,2013-05-31 14:45:00,
2013-05-31 09:50:00,65.7,50.0,29.69,WSW,256,14.0,35.0,57,0.00,,,0.00,Wunderground v.1.15,2013-05-31 14:50:00,
2013-05-31 09:55:00,65.8,50.1,29.69,WNW,295,14.0,35.0,57,0.00,,,0.00,Wunderground v.1.15,2013-05-31 14:55:00,
2013-05-31 10:05:00,66.3,51.1,29.69,West,275,13.0,35.0,58,0.00,,,0.00,Wunderground v.1.15,2013-05-31 15:05:00,
2013-05-31 10:10:00,66.5,50.3,29.69,West,269,14.0,35.0,56,0.00,,,0.00,Wunderground v.1.15,2013-05-31 15:10:00,
2013-05-31 10:15:00,66.9,49.7,29.69,West,272,15.0,35.0,54,0.00,,,0.00,Wunderground v.1.15,2013-05-31 15:15:00,
2013-05-31 10:20:00,67.2,50.0,29.69,West,279,15.0,15.0,54,0.00,,,0.00,Wunderground v.1.15,2013-05-31 15:20:00,
2013-05-31 10:25:00,67.3,50.1,29.69,West,263,15.0,17.0,54,0.00,,,0.00,Wunderground v.1.15,2013-05-31 15:25:00,
2013-05-31 10:35:00,67.7,49.9,29.69,WSW,254,16.0,18.0,53,0.00,,,0.00,Wunderground v.1.15,2013-05-31 15:35:00,
2013-05-31 10:40:00,67.8,51.5,29.69,WSW,257,16.0,35.0,56,0.00,,,0.00,Wunderground v.1.15,2013-05-31 15:40:00,
2013-05-31 10:50:00,68.3,51.0,29.69,WSW,250,17.0,35.0,54,0.00,,,0.00,Wunderground v.1.15,2013-05-31 15:50:00,
2013-05-31 10:55:00,68.3,50.0,29.70,WSW,257,17.0,35.0,52,0.00,,,0.00,Wunderground v.1.15,2013-05-31 15:55:00,
2013-05-31 11:00:00,68.6,52.8,29.70,WSW,258,17.0,17.0,57,0.00,,,0.00,Wunderground v.1.15,2013-05-31 16:00:00,
2013-05-31 11:05:00,68.7,51.4,29.70,WSW,248,16.0,20.0,54,0.00,,,0.00,Wunderground v.1.15,2013-05-31 16:05:00,
2013-05-31 11:15:00,69.3,51.4,29.70,WSW,249,18.0,18.0,53,0.00,,,0.00,Wunderground v.1.15,2013-05-31 16:15:00,
2013-05-31 11:20:00,69.6,50.7,29.70,West,261,18.0,35.0,51,0.00,,,0.00,Wunderground v.1.15,2013-05-31 16:20:00,
2013-05-31 11:25:00,69.7,50.2,29.70,WSW,250,19.0,35.0,50,0.00,,,0.00,Wunderground v.1.15,2013-05-31 16:25:00,
2013-05-31 11:35:00,70.1,52.7,29.70,West,259,18.0,35.0,54,0.00,,,0.00,Wunderground v.1.15,2013-05-31 16:35:00,
2013-05-31 11:40:00,70.1,50.6,29.70,WSW,244,16.0,16.0,50,0.00,,,0.00,Wunderground v.1.15,2013-05-31 16:40:00,
2013-05-31 11:45:00,70.3,52.9,29.70,SW,224,14.0,35.0,54,0.00,,,0.00,Wunderground v.1.15,2013-05-31 16:45:00,
2013-05-31 11:55:00,70.7,50.6,29.69,West,263,18.0,35.0,49,0.00,,,0.00,Wunderground v.1.15,2013-05-31 16:55:00,
2013-05-31 12:00:00,71.2,51.6,29.69,WSW,253,18.0,18.0,50,0.00,,,0.00,Wunderground v.1.15,2013-05-31 17:00:00,
2013-05-31 12:05:00,71.5,51.9,29.69,WSW,249,17.0,21.0,50,0.00,,,0.00,Wunderground v.1.15,2013-05-31 17:05:00,
2013-05-31 12:10:00,71.6,52.5,29.69,WSW,242,17.0,35.0,51,0.00,,,0.00,Wunderground v.1.15,2013-05-31 17:10:00,
2013-05-31 12:20:00,71.6,50.9,29.69,West,260,19.0,35.0,48,0.00,,,0.00,Wunderground v.1.15,2013-05-31 17:20:00,
2013-05-31 12:25:00,71.7,48.0,29.69,WSW,240,19.0,35.0,43,0.00,,,0.00,Wunderground v.1.15,2013-05-31 17:25:00,
2013-05-31 12:30:00,71.9,48.2,29.69,WSW,239,19.0,19.0,43,0.00,,,0.00,Wunderground v.1.15,2013-05-31 17:30:00,
2013-05-31 12:40:00,73.1,49.9,29.69,WSW,253,18.0,35.0,44,0.00,,,0.00,Wunderground v.1.15,2013-05-31 17:40:00,
2013-05-31 12:45:00,73.7,49.2,29.68,SW,230,18.0,35.0,42,0.00,,,0.00,Wunderground v.1.15,2013-05-31 17:45:00,
2013-05-31 12:50:00,73.7,47.2,29.68,WSW,249,19.0,35.0,39,0.00,,,0.00,Wunderground v.1.15,2013-05-31 17:50:00,
2013-05-31 12:55:00,73.3,46.8,29.68,WSW,239,21.0,35.0,39,0.00,,,0.00,Wunderground v.1.15,2013-05-31 17:55:00,
2013-05-31 13:05:00,73.3,46.8,29.69,West,269,21.0,35.0,39,0.00,,,0.00,Wunderground v.1.15,2013-05-31 18:05:00,
2013-05-31 13:10:00,73.3,48.2,29.69,WSW,250,20.0,20.0,41,0.00,,,0.00,Wunderground v.1.15,2013-05-31 18:10:00,
2013-05-31 13:15:00,73.7,50.4,29.68,WSW,251,19.0,21.0,44,0.00,,,0.00,Wunderground v.1.15,2013-05-31 18:15:00,
2013-05-31 13:25:00,74.1,48.9,29.68,WNW,291,20.0,35.0,41,0.00,,,0.00,Wunderground v.1.15,2013-05-31 18:25:00,
2013-05-31 13:30:00,74.0,47.5,29.68,West,277,21.0,35.0,39,0.00,,,0.00,Wunderground v.1.15,2013-05-31 18:30:00,
2013-05-31 13:35:00,74.0,46.1,29.68,West,275,20.0,35.0,37,0.00,,,0.00,Wunderground v.1.15,2013-05-31 18:35:00,
2013-05-31 13:40:00,74.0,48.1,29.68,WNW,286,17.0,35.0,40,0.00,,,0.00,Wunderground v.1.15,2013-05-31 18:40:00,
2013-05-31 13:45:00,74.1,47.6,29.68,West,281,17.0,35.0,39,0.00,,,0.00,Wunderground v.1.15,2013-05-31 18:45:00,
2013-05-31 13:55:00,74.1,45.4,29.67,West,263,18.0,35.0,36,0.00,,,0.00,Wunderground v.1.15,2013-05-31 18:55:00,
2013-05-31 14:00:00,74.2,46.2,29.68,West,271,16.0,35.0,37,0.00,,,0.00,Wunderground v.1.15,2013-05-31 19:00:00,
2013-05-31 14:05:00,74.3,48.4,29.67,SW,236,16.0,35.0,40,0.00,,,0.00,Wunderground v.1.15,2013-05-31 19:05:00,
2013-05-31 14:10:00,74.7,48.8,29.67,West,263,15.0,35.0,40,0.00,,,0.00,Wunderground v.1.15,2013-05-31 19:10:00,
2013-05-31 14:20:00,74.5,45.8,29.67,West,261,19.0,19.0,36,0.00,,,0.00,Wunderground v.1.15,2013-05-31 19:20:00,
2013-05-31 14:25:00,74.9,47.6,29.67,West,261,20.0,20.0,38,0.00,,,0.00,Wunderground v.1.15,2013-05-31 19:25:00,
2013-05-31 14:30:00,75.2,47.1,29.67,WSW,257,20.0,35.0,37,0.00,,,0.00,Wunderground v.1.15,2013-05-31 19:30:00,
2013-05-31 14:35:00,75.0,44.7,29.67,WSW,252,21.0,35.0,34,0.00,,,0.00,Wunderground v.1.15,2013-05-31 19:35:00,
2013-05-31 14:45:00,75.3,45.7,29.67,WSW,244,19.0,25.0,35,0.00,,,0.00,Wunderground v.1.15,2013-05-31 19:45:00,
2013-05-31 14:50:00,75.3,46.5,29.67,WSW,244,19.0,35.0,36,0.00,,,0.00,Wunderground v.1.15,2013-05-31 19:50:00,
2013-05-31 14:55:00,75.6,45.2,29.67,West,260,21.0,35.0,34,0.00,,,0.00,Wunderground v.1.15,2013-05-31 19:55:00,
2013-05-31 15:00:00,75.3,44.2,29.67,WSW,257,21.0,35.0,33,0.00,,,0.00,Wunderground v.1.15,2013-05-31 20:00:00,
2013-05-31 15:10:00,76.1,45.7,29.66,WSW,250,21.0,35.0,34,0.00,,,0.00,Wunderground v.1.15,2013-05-31 20:10:00,
2013-05-31 15:15:00,75.8,44.6,29.66,SW,229,22.0,35.0,33,0.00,,,0.00,Wunderground v.1.15,2013-05-31 20:15:00,
2013-05-31 15:20:00,75.8,47.7,29.67,West,267,22.0,22.0,37,0.00,,,0.00,Wunderground v.1.15,2013-05-31 20:20:00,
2013-05-31 15:25:00,76.2,43.3,29.66,West,266,19.0,35.0,31,0.00,,,0.00,Wunderground v.1.15,2013-05-31 20:25:00,
2013-05-31 15:35:00,76.6,47.6,29.66,WNW,286,17.0,35.0,36,0.00,,,0.00,Wunderground v.1.15,2013-05-31 20:35:00,
2013-05-31 15:40:00,76.5,45.2,29.66,West,263,18.0,35.0,33,0.00,,,0.00,Wunderground v.1.15,2013-05-31 20:40:00,
2013-05-31 15:50:00,76.6,44.5,29.66,WSW,257,23.0,35.0,32,0.00,,,0.00,Wunderground v.1.15,2013-05-31 20:50:00,
2013-05-31 15:55:00,76.7,43.8,29.66,WSW,250,25.0,35.0,31,0.00,,,0.00,Wunderground v.1.15,2013-05-31 20:55:00,
2013-05-31 16:00:00,76.7,44.6,29.66,WSW,247,23.0,23.0,32,0.00,,,0.00,Wunderground v.1.15,2013-05-31 21:00:00,
2013-05-31 16:05:00,76.6,46.9,29.66,West,269,22.0,35.0,35,0.00,,,0.00,Wunderground v.1.15,2013-05-31 21:05:00,
2013-05-31 16:15:00,76.6,44.5,29.66,West,259,20.0,35.0,32,0.00,,,0.00,Wunderground v.1.15,2013-05-31 21:15:00,
2013-05-31 16:20:00,77.6,42.8,29.66,WNW,299,20.0,35.0,29,0.00,,,0.00,Wunderground v.1.15,2013-05-31 21:20:00,
2013-05-31 16:25:00,77.2,42.5,29.65,WSW,254,22.0,35.0,29,0.00,,,0.00,Wunderground v.1.15,2013-05-31 21:25:00,
2013-05-31 16:30:00,76.9,43.1,29.66,WSW,247,21.0,21.0,30,0.00,,,0.00,Wunderground v.1.15,2013-05-31 21:30:00,
2013-05-31 16:40:00,77.4,44.4,29.65,West,273,23.0,23.0,31,0.00,,,0.00,Wunderground v.1.15,2013-05-31 21:40:00,
2013-05-31 16:45:00,77.5,41.8,29.65,WNW,284,21.0,35.0,28,0.00,,,0.00,Wunderground v.1.15,2013-05-31 21:45:00,
2013-05-31 16:50:00,76.9,42.2,29.65,West,277,21.0,21.0,29,0.00,,,0.00,Wunderground v.1.15,2013-05-31 21:50:00,
2013-05-31 16:55:00,76.6,43.7,29.66,West,267,23.0,23.0,31,0.00,,,0.00,Wunderground v.1.15,2013-05-31 21:55:00,
2013-05-31 17:00:00,77.0,46.5,29.65,WSW,255,21.0,21.0,34,0.00,,,0.00,Wunderground v.1.15,2013-05-31 22:00:00,
2013-05-31 17:10:00,76.7,42.0,29.65,West,276,21.0,21.0,29,0.00,,,0.00,Wunderground v.1.15,2013-05-31 22:10:00,
2013-05-31 17:15:00,76.4,41.8,29.66,West,266,22.0,23.0,29,0.00,,,0.00,Wunderground v.1.15,2013-05-31 22:15:00,
2013-05-31 17:20:00,77.0,42.3,29.66,West,277,23.0,23.0,29,0.00,,,0.00,Wunderground v.1.15,2013-05-31 22:20:00,
2013-05-31 17:30:00,77.1,43.3,29.66,WNW,283,24.0,24.0,30,0.00,,,0.00,Wunderground v.1.15,2013-05-31 22:30:00,
2013-05-31 17:35:00,77.1,42.4,29.66,West,267,24.0,35.0,29,0.00,,,0.00,Wunderground v.1.15,2013-05-31 22:35:00,
2013-05-31 17:40:00,76.9,43.1,29.66,West,272,23.0,35.0,30,0.00,,,0.00,Wunderground v.1.15,2013-05-31 22:40:00,
2013-05-31 17:45:00,76.9,44.0,29.66,West,270,22.0,35.0,31,0.00,,,0.00,Wunderground v.1.15,2013-05-31 22:45:00,
2013-05-31 17:55:00,76.7,43.8,29.66,West,262,22.0,35.0,31,0.00,,,0.00,Wunderground v.1.15,2013-05-31 22:55:00,
2013-05-31 18:00:00,76.9,43.1,29.66,West,277,21.0,35.0,30,0.00,,,0.00,Wunderground v.1.15,2013-05-31 23:00:00,
2013-05-31 18:05:00,76.7,45.4,29.66,West,271,21.0,35.0,33,0.00,,,0.00,Wunderground v.1.15,2013-05-31 23:05:00,
2013-05-31 18:15:00,76.4,45.2,29.66,West,267,19.0,22.0,33,0.00,,,0.00,Wunderground v.1.15,2013-05-31 23:15:00,
2013-05-31 18:20:00,76.3,43.4,29.66,West,279,20.0,20.0,31,0.00,,,0.00,Wunderground v.1.15,2013-05-31 23:20:00,
2013-05-31 18:25:00,76.3,43.4,29.66,West,271,21.0,22.0,31,0.00,,,0.00,Wunderground v.1.15,2013-05-31 23:25:00,
2013-05-31 18:30:00,76.1,45.7,29.66,West,269,21.0,21.0,34,0.00,,,0.00,Wunderground v.1.15,2013-05-31 23:30:00,
2013-05-31 18:35:00,75.7,43.7,29.67,WNW,286,21.0,23.0,32,0.00,,,0.00,Wunderground v.1.15,2013-05-31 23:35:00,
2013-05-31 18:45:00,75.2,44.9,29.66,WNW,289,21.0,25.0,34,0.00,,,0.00,Wunderground v.1.15,2013-05-31 23:45:00,
2013-05-31 18:50:00,75.0,44.7,29.66,West,276,20.0,35.0,34,0.00,,,0.00,Wunderground v.1.15,2013-05-31 23:50:00,
2013-05-31 19:00:00,74.6,45.1,29.67,WNW,287,22.0,22.0,35,0.00,,,0.00,Wunderground v.1.15,2013-06-01 00:00:00,
2013-05-31 19:05:00,74.5,45.0,29.67,WNW,291,20.0,35.0,35,0.00,,,0.00,Wunderground v.1.15,2013-06-01 00:05:00,
2013-05-31 19:15:00,74.1,46.2,29.67,WNW,287,19.0,35.0,37,0.00,,,0.00,Wunderground v.1.15,2013-06-01 00:15:00,